createdAt,value
2023-02-08T00:01:42.183Z,1.87
2023-02-08T00:04:10.569Z,3.30
2023-02-08T00:06:38.983Z,1.43
2023-02-08T00:09:09.075Z,1.47
2023-02-08T00:11:37.647Z,1.73
2023-02-08T00:14:06.147Z,2.10
2023-02-08T00:16:34.592Z,1.13
2023-02-08T00:19:02.969Z,2.40
2023-02-08T00:21:31.359Z,1.20
2023-02-08T00:23:59.737Z,2.50
2023-02-08T00:26:29.506Z,1.73
2023-02-08T00:28:57.893Z,1.97
2023-02-08T00:31:26.334Z,1.37
2023-02-08T00:33:54.789Z,0.93
2023-02-08T00:36:23.194Z,0.87
2023-02-08T00:38:51.563Z,2.10
2023-02-08T00:41:19.906Z,2.17
2023-02-08T00:43:49.622Z,1.33
2023-02-08T00:46:18.044Z,0.80
2023-02-08T00:48:46.471Z,1.60
2023-02-08T00:51:15.727Z,2.57
2023-02-08T00:53:45.034Z,1.13
2023-02-08T00:56:14.656Z,2.03
2023-02-08T00:58:43.252Z,2.40
2023-02-08T01:01:13.072Z,0.90
2023-02-08T01:03:42.457Z,0.90
2023-02-08T01:06:12.323Z,2.23
2023-02-08T01:08:40.757Z,1.20
2023-02-08T01:11:10.132Z,0.90
2023-02-08T01:13:38.979Z,1.67
2023-02-08T01:16:08.081Z,0.80
2023-02-08T01:18:37.880Z,2.00
2023-02-08T01:21:07.323Z,1.13
2023-02-08T01:23:36.188Z,1.10
2023-02-08T01:26:04.588Z,3.37
2023-02-08T01:28:33.198Z,1.27
2023-02-08T01:31:02.091Z,1.73
2023-02-08T01:33:30.603Z,1.57
2023-02-08T01:36:00.354Z,1.10
2023-02-08T01:38:29.067Z,2.80
2023-02-08T01:40:57.514Z,1.70
2023-02-08T01:43:26.831Z,2.17
2023-02-08T01:45:55.617Z,1.30
2023-02-08T01:48:25.594Z,1.10
2023-02-08T01:50:56.197Z,3.47
2023-02-08T01:53:27.278Z,0.93
2023-02-08T01:55:57.211Z,0.90
2023-02-08T01:58:27.731Z,1.37
2023-02-08T02:00:56.478Z,3.00
2023-02-08T02:03:25.474Z,1.20
2023-02-08T02:05:56.357Z,4.10
2023-02-08T02:08:26.295Z,2.93
2023-02-08T02:10:54.832Z,1.73
2023-02-08T02:13:24.453Z,1.70
2023-02-08T02:15:52.967Z,2.27
2023-02-08T02:18:24.391Z,1.40
2023-02-08T02:21:02.168Z,1.63
2023-02-08T02:24:00.690Z,1.10
2023-02-08T02:26:44.013Z,2.40
2023-02-08T02:29:33.359Z,1.57
2023-02-08T02:32:06.835Z,1.93
2023-02-08T02:34:39.939Z,1.07
2023-02-08T02:37:12.726Z,1.20
2023-02-08T02:39:45.207Z,1.33
2023-02-08T02:42:33.447Z,1.17
2023-02-08T02:45:07.504Z,1.20
2023-02-08T02:47:40.674Z,2.10
2023-02-08T02:50:12.421Z,1.73
2023-02-08T02:52:43.146Z,1.20
2023-02-08T02:55:12.617Z,2.33
2023-02-08T02:57:43.630Z,1.70
2023-02-08T03:00:13.961Z,1.73
2023-02-08T03:02:45.101Z,1.23
2023-02-08T03:05:14.267Z,4.00
2023-02-08T03:07:51.265Z,3.43
2023-02-08T03:10:41.490Z,2.00
2023-02-08T03:13:14.782Z,1.43
2023-02-08T03:15:48.584Z,1.10
2023-02-08T03:18:23.316Z,3.13
2023-02-08T03:20:56.410Z,0.80
2023-02-08T03:23:29.708Z,1.80
2023-02-08T03:26:02.286Z,1.20
2023-02-08T03:28:34.500Z,3.80
2023-02-08T03:31:05.474Z,1.00
2023-02-08T03:33:37.093Z,1.63
2023-02-08T03:36:07.684Z,1.30
2023-02-08T03:38:38.357Z,1.30
2023-02-08T03:41:08.338Z,1.00
2023-02-08T03:43:38.498Z,1.87
2023-02-08T03:46:10.936Z,1.33
2023-02-08T03:48:42.512Z,1.87
2023-02-08T03:51:11.561Z,2.37
2023-02-08T03:53:40.703Z,3.20
2023-02-08T03:56:12.701Z,0.83
2023-02-08T03:58:43.683Z,2.60
2023-02-08T04:01:15.440Z,1.83
2023-02-08T04:03:46.321Z,0.90
2023-02-08T04:06:14.883Z,1.33
2023-02-08T04:08:43.259Z,2.30
2023-02-08T04:11:11.701Z,1.10
2023-02-08T04:13:40.079Z,2.33
2023-02-08T04:16:08.809Z,2.37
2023-02-08T04:18:37.174Z,1.77
2023-02-08T04:21:07.113Z,1.83
2023-02-08T04:23:35.473Z,1.20
2023-02-08T04:26:04.204Z,1.77
2023-02-08T04:28:32.680Z,1.57
2023-02-08T04:31:01.104Z,3.17
2023-02-08T04:33:29.514Z,1.73
2023-02-08T04:35:57.956Z,0.93
2023-02-08T04:38:27.694Z,2.10
2023-02-08T04:40:56.090Z,3.53
2023-02-08T04:43:24.484Z,0.87
2023-02-08T04:45:53.095Z,1.20
2023-02-08T04:48:21.606Z,0.90
2023-02-08T04:50:50.005Z,1.50
2023-02-08T04:53:18.526Z,1.17
2023-02-08T04:55:48.283Z,0.80
2023-02-08T04:58:16.718Z,0.97
2023-02-08T05:00:45.202Z,2.43
2023-02-08T05:03:13.659Z,0.80
2023-02-08T05:05:42.052Z,0.87
2023-02-08T05:08:10.677Z,1.37
2023-02-08T05:10:39.317Z,1.47
2023-02-08T05:13:09.277Z,5.13
2023-02-08T05:15:37.675Z,1.50
2023-02-08T05:18:06.131Z,2.87
2023-02-08T05:20:34.656Z,2.30
2023-02-08T05:23:03.030Z,1.93
2023-02-08T05:25:31.393Z,0.90
2023-02-08T05:28:00.848Z,1.77
2023-02-08T05:30:31.509Z,0.90
2023-02-08T05:32:59.882Z,1.13
2023-02-08T05:35:28.291Z,1.80
2023-02-08T05:37:56.683Z,1.00
2023-02-08T05:40:25.178Z,3.10
2023-02-08T05:42:53.616Z,1.47
2023-02-08T05:45:22.012Z,1.33
2023-02-08T05:47:51.804Z,1.90
2023-02-08T05:50:20.412Z,0.90
2023-02-08T05:52:48.811Z,3.10
2023-02-08T05:55:17.261Z,1.00
2023-02-08T05:57:45.645Z,1.40
2023-02-08T06:00:14.643Z,2.07
2023-02-08T06:02:43.107Z,1.60
2023-02-08T06:05:12.952Z,2.13
2023-02-08T06:07:41.374Z,0.80
2023-02-08T06:10:11.524Z,1.90
2023-02-08T06:12:40.054Z,2.77
2023-02-08T06:15:08.661Z,2.60
2023-02-08T06:17:37.070Z,1.50
2023-02-08T06:20:05.789Z,2.57
2023-02-08T06:22:37.372Z,1.00
2023-02-08T06:25:06.522Z,1.40
2023-02-08T06:27:34.921Z,1.57
2023-02-08T06:30:03.288Z,2.10
2023-02-08T06:32:31.717Z,1.97
2023-02-08T06:35:00.129Z,3.30
2023-02-08T06:37:28.501Z,1.93
2023-02-08T06:39:58.991Z,2.00
2023-02-08T06:42:31.800Z,3.60
2023-02-08T06:45:00.304Z,1.60
2023-02-08T06:47:30.417Z,1.63
2023-02-08T06:49:58.818Z,0.90
2023-02-08T06:52:27.291Z,1.57
2023-02-08T06:54:55.840Z,2.07
2023-02-08T06:57:25.649Z,2.07
2023-02-08T06:59:54.131Z,1.60
2023-02-08T07:02:23.108Z,1.07
2023-02-08T07:04:51.545Z,1.50
2023-02-08T07:07:20.115Z,0.97
2023-02-08T07:09:48.515Z,1.70
2023-02-08T07:12:16.969Z,3.53
2023-02-08T07:14:46.820Z,1.07
2023-02-08T07:17:15.511Z,0.80
2023-02-08T07:19:43.887Z,1.53
2023-02-08T07:22:12.268Z,1.10
2023-02-08T07:24:41.967Z,0.90
2023-02-08T07:27:11.474Z,2.43
2023-02-08T07:29:39.938Z,0.80
2023-02-08T07:32:10.243Z,1.10
2023-02-08T07:34:40.741Z,2.67
2023-02-08T07:37:09.233Z,1.77
2023-02-08T07:39:37.749Z,1.37
2023-02-08T07:42:10.359Z,1.70
2023-02-08T07:44:39.250Z,1.83
2023-02-08T07:47:08.498Z,4.73
2023-02-08T07:49:38.412Z,4.13
2023-02-08T07:52:06.818Z,0.90
2023-02-08T07:54:35.188Z,2.23
2023-02-08T07:57:03.883Z,2.43
2023-02-08T07:59:32.378Z,4.20
2023-02-08T08:02:26.600Z,1.20
2023-02-08T08:04:56.424Z,2.30
2023-02-08T08:07:24.802Z,1.47
2023-02-08T08:09:53.220Z,1.10
2023-02-08T08:12:21.667Z,1.23
2023-02-08T08:14:50.101Z,1.13
2023-02-08T08:17:18.525Z,3.43
2023-02-08T08:19:47.149Z,1.40
2023-02-08T08:22:16.893Z,0.90
2023-02-08T08:24:45.377Z,4.10
2023-02-08T08:27:13.748Z,2.27
2023-02-08T08:33:48.243Z,3.67
2023-02-08T08:36:16.761Z,1.57
2023-02-08T08:38:46.628Z,2.03
2023-02-08T08:41:17.134Z,4.40
2023-02-08T08:43:45.715Z,7.40
2023-02-08T08:46:15.305Z,5.13
2023-02-08T08:48:43.887Z,9.13
2023-02-08T08:51:35.309Z,5.27
2023-02-08T08:54:23.648Z,5.37
2023-02-08T09:21:29.878Z,4.90
2023-02-08T09:30:26.361Z,6.30
2023-02-08T09:32:54.921Z,5.40
2023-02-08T09:35:23.468Z,3.57
2023-02-08T09:37:55.444Z,7.10
2023-02-08T09:40:27.264Z,4.70
2023-02-08T09:43:04.687Z,5.53
2023-02-08T09:45:51.110Z,5.37
2023-02-08T09:48:30.990Z,6.10
2023-02-08T09:51:02.499Z,3.33
2023-02-08T09:53:34.367Z,5.47
2023-02-08T09:56:09.927Z,3.70
2023-02-08T09:58:41.618Z,5.63
2023-02-08T10:01:14.292Z,7.57
2023-02-08T10:03:45.063Z,4.67
2023-02-08T10:06:14.639Z,2.93
2023-02-08T10:08:43.496Z,5.23
2023-02-08T10:11:23.061Z,6.30
2023-02-08T10:14:06.534Z,10.37
2023-02-08T10:16:48.135Z,8.27
2023-02-08T10:19:23.898Z,8.00
2023-02-08T10:22:01.018Z,9.60
2023-02-08T10:24:38.175Z,12.00
2023-02-08T10:27:12.613Z,8.50
2023-02-08T10:29:53.027Z,7.13
2023-02-08T10:32:35.269Z,4.90
2023-02-08T10:35:04.882Z,9.47
2023-02-08T10:37:35.109Z,9.03
2023-02-08T10:40:15.049Z,10.97
2023-02-08T10:42:47.908Z,7.77
2023-02-08T10:45:24.505Z,9.37
2023-02-08T10:47:55.405Z,6.73
2023-02-08T10:50:30.159Z,6.30
2023-02-08T10:52:58.837Z,8.40
2023-02-08T10:55:27.400Z,3.33
2023-02-08T10:57:59.030Z,7.47
2023-02-08T11:00:29.188Z,3.10
2023-02-08T11:03:00.838Z,4.17
2023-02-08T11:05:40.681Z,10.70
2023-02-08T11:08:10.357Z,8.03
2023-02-08T11:10:39.355Z,10.07
2023-02-08T11:13:31.508Z,8.60
2023-02-08T11:16:01.147Z,11.07
2023-02-08T11:18:32.133Z,6.47
2023-02-08T11:21:01.665Z,10.30
2023-02-08T11:23:31.083Z,6.47
2023-02-08T11:26:15.783Z,9.70
2023-02-08T11:28:45.798Z,10.13
2023-02-08T11:31:18.775Z,8.50
2023-02-08T11:34:00.844Z,8.33
2023-02-08T11:36:32.373Z,8.67
2023-02-08T11:39:03.341Z,6.77
2023-02-08T11:41:32.127Z,8.37
2023-02-08T11:44:04.334Z,5.50
2023-02-08T11:46:34.740Z,6.33
2023-02-08T11:49:06.704Z,3.93
2023-02-08T11:51:36.765Z,15.17
2023-02-08T11:54:05.715Z,3.73
2023-02-08T11:56:35.284Z,8.00
2023-02-08T11:59:07.957Z,4.40
2023-02-08T12:01:37.410Z,5.60
2023-02-08T12:04:07.236Z,4.97
2023-02-08T12:06:53.678Z,4.70
2023-02-08T12:09:27.404Z,9.37
2023-02-08T12:12:02.155Z,3.40
2023-02-08T12:14:37.769Z,4.27
2023-02-08T12:17:13.439Z,5.40
2023-02-08T12:20:00.226Z,7.33
2023-02-08T12:22:29.328Z,4.90
2023-02-08T12:25:02.592Z,7.93
2023-02-08T12:27:40.372Z,7.13
2023-02-08T12:30:19.153Z,5.57
2023-02-08T12:32:55.186Z,6.13
2023-02-08T12:36:04.187Z,4.17
2023-02-08T12:39:17.039Z,4.60
2023-02-08T12:41:52.453Z,2.47
2023-02-08T12:44:24.955Z,5.73
2023-02-08T12:46:59.863Z,3.50
2023-02-08T12:49:44.268Z,5.10
2023-02-08T12:52:19.698Z,6.00
2023-02-08T12:54:50.219Z,5.10
2023-02-08T12:57:20.412Z,4.23
2023-02-08T12:59:50.405Z,3.50
2023-02-08T13:02:23.798Z,4.67
2023-02-08T13:04:54.669Z,2.90
2023-02-08T13:07:25.707Z,3.50
2023-02-08T13:09:56.865Z,2.43
2023-02-08T13:12:27.290Z,6.77
2023-02-08T13:14:56.814Z,4.57
2023-02-08T13:17:28.273Z,4.53
2023-02-08T13:20:01.117Z,5.77
2023-02-08T13:22:32.598Z,5.60
2023-02-08T13:25:07.534Z,1.97
2023-02-08T13:27:39.883Z,3.10
2023-02-08T13:30:09.781Z,4.60
2023-02-08T13:32:51.953Z,3.67
2023-02-08T13:35:22.668Z,2.57
2023-02-08T13:37:53.301Z,4.50
2023-02-08T13:40:28.012Z,4.50
2023-02-08T13:43:00.309Z,4.60
2023-02-08T13:45:30.228Z,2.80
2023-02-08T13:48:00.879Z,3.00
2023-02-08T13:50:53.539Z,4.50
2023-02-08T13:53:42.609Z,6.67
2023-02-08T13:56:15.309Z,3.47
2023-02-08T13:59:01.944Z,5.47
2023-02-08T14:01:31.656Z,4.97
2023-02-08T14:04:52.007Z,4.43
2023-02-08T14:07:26.021Z,5.53
2023-02-08T14:10:09.714Z,5.80
2023-02-08T14:12:41.930Z,4.63
2023-02-08T14:15:31.766Z,4.10
2023-02-08T14:18:03.558Z,5.23
2023-02-08T14:20:39.755Z,4.13
2023-02-08T14:23:09.856Z,5.77
2023-02-08T14:25:43.558Z,6.07
2023-02-08T14:28:26.580Z,4.70
2023-02-08T14:30:56.446Z,5.87
2023-02-08T14:33:27.086Z,5.40
2023-02-08T14:35:57.153Z,5.30
2023-02-08T14:38:55.771Z,6.37
2023-02-08T14:41:43.080Z,6.20
2023-02-08T14:44:32.092Z,5.17
2023-02-08T14:47:01.987Z,5.13
2023-02-08T14:49:37.296Z,4.47
2023-02-08T14:52:07.812Z,6.13
2023-02-08T14:54:39.061Z,4.20
2023-02-08T14:57:09.646Z,6.27
2023-02-08T14:59:38.805Z,7.27
2023-02-08T15:02:14.292Z,5.70
2023-02-08T15:04:44.288Z,8.00
2023-02-08T15:07:21.897Z,6.43
2023-02-08T15:09:50.512Z,7.63
2023-02-08T15:12:22.114Z,6.33
2023-02-08T15:14:51.027Z,6.17
2023-02-08T15:17:28.582Z,6.17
2023-02-08T15:19:57.324Z,7.73
2023-02-08T15:23:12.021Z,6.17
2023-02-08T15:25:43.351Z,6.10
2023-02-08T15:28:26.751Z,5.90
2023-02-08T15:31:10.315Z,4.50
2023-02-08T15:33:43.822Z,4.70
2023-02-08T15:36:35.749Z,3.33
2023-02-08T15:39:05.588Z,6.53
2023-02-08T15:41:34.936Z,6.57
2023-02-08T15:44:07.148Z,4.33
2023-02-08T15:46:36.620Z,3.60
2023-02-08T15:49:06.841Z,5.93
2023-02-08T15:51:35.896Z,4.60
2023-02-08T15:54:04.628Z,5.27
2023-02-08T15:56:40.727Z,6.33
2023-02-08T15:59:20.215Z,5.10
2023-02-08T16:01:58.045Z,5.77
2023-02-08T16:04:28.839Z,6.03
2023-02-08T16:06:59.316Z,5.33
2023-02-08T16:09:29.991Z,6.83
2023-02-08T16:12:00.631Z,6.23
2023-02-08T16:14:32.275Z,5.53
2023-02-08T16:17:24.296Z,7.07
2023-02-08T16:19:54.506Z,5.10
2023-02-08T16:22:32.259Z,5.60
2023-02-08T16:25:34.128Z,5.47
2023-02-08T16:28:24.799Z,3.60
2023-02-08T16:33:29.601Z,5.03
2023-02-08T16:36:06.179Z,3.93
2023-02-08T16:39:25.956Z,6.17
2023-02-08T16:42:14.554Z,6.03
2023-02-08T16:44:59.578Z,5.13
2023-02-08T16:47:29.821Z,2.97
2023-02-08T16:49:58.450Z,5.33
2023-02-08T16:52:28.832Z,5.87
2023-02-08T16:54:57.747Z,4.73
2023-02-08T16:57:26.532Z,3.77
2023-02-08T16:59:56.800Z,5.60
2023-02-08T17:02:25.383Z,4.67
2023-02-08T17:04:54.728Z,3.00
2023-02-08T17:07:27.381Z,4.03
2023-02-08T17:09:57.404Z,5.03
2023-02-08T17:12:26.387Z,6.67
2023-02-08T17:14:55.095Z,5.07
2023-02-08T17:17:23.794Z,4.77
2023-02-08T17:19:52.562Z,4.50
2023-02-08T17:22:21.178Z,4.10
2023-02-08T17:24:49.822Z,6.20
2023-02-08T17:27:20.056Z,5.53
2023-02-08T17:29:48.539Z,5.40
2023-02-08T17:32:17.356Z,4.87
2023-02-08T17:34:46.075Z,4.73
2023-02-08T17:37:14.720Z,3.80
2023-02-08T17:39:43.393Z,1.97
2023-02-08T17:42:12.255Z,4.00
2023-02-08T17:44:42.332Z,3.00
2023-02-08T17:47:10.907Z,3.47
2023-02-08T17:49:44.158Z,2.30
2023-02-08T17:52:12.812Z,3.57
2023-02-08T17:54:42.217Z,4.00
2023-02-08T17:57:12.060Z,3.70
2023-02-08T17:59:42.705Z,3.10
2023-02-08T18:02:13.652Z,3.37
2023-02-08T18:04:44.167Z,3.07
2023-02-08T18:07:12.903Z,1.13
2023-02-08T18:09:48.302Z,0.80
2023-02-08T18:12:19.222Z,1.30
2023-02-08T18:14:49.397Z,0.80
2023-02-08T18:17:20.869Z,0.80
2023-02-08T18:19:49.501Z,5.60
2023-02-08T18:22:18.982Z,4.33
2023-02-08T18:24:48.322Z,7.80
2023-02-08T18:27:16.807Z,5.83
2023-02-08T18:29:45.588Z,4.03
2023-02-08T18:32:16.072Z,4.63
2023-02-08T18:34:45.291Z,1.03
2023-02-08T18:37:13.866Z,4.13
2023-02-08T18:39:42.488Z,1.00
2023-02-08T18:42:11.853Z,0.80
2023-02-08T18:44:40.583Z,0.70
2023-02-08T18:47:09.585Z,0.80
2023-02-08T18:49:41.419Z,1.10
2023-02-08T18:52:10.589Z,1.93
2023-02-08T18:54:39.508Z,3.57
2023-02-08T18:57:09.730Z,3.43
2023-02-08T18:59:38.701Z,2.73
2023-02-08T19:02:08.104Z,1.57
2023-02-08T19:04:40.936Z,3.07
2023-02-08T19:07:12.760Z,3.93
2023-02-08T19:09:41.704Z,5.17
2023-02-08T19:12:10.664Z,3.07
2023-02-08T19:14:42.992Z,3.43
2023-02-08T19:17:14.641Z,4.93
2023-02-08T19:19:44.905Z,3.17
2023-02-08T19:22:13.639Z,5.83
2023-02-08T19:24:42.145Z,2.93
2023-02-08T19:27:10.671Z,3.00
2023-02-08T19:29:39.141Z,3.07
2023-02-08T19:32:08.279Z,3.60
2023-02-08T19:34:36.893Z,2.77
2023-02-08T19:37:06.837Z,4.00
2023-02-08T19:39:35.212Z,2.97
2023-02-08T19:42:03.639Z,5.60
2023-02-08T19:44:32.145Z,4.13
2023-02-08T19:47:00.647Z,1.80
2023-02-08T19:49:29.225Z,4.67
2023-02-08T19:51:57.864Z,4.17
2023-02-08T19:54:27.913Z,4.00
2023-02-08T19:56:56.679Z,7.97
2023-02-08T19:59:25.977Z,4.43
2023-02-08T20:01:54.937Z,5.80
2023-02-08T20:04:23.683Z,5.53
2023-02-08T20:06:52.375Z,4.23
2023-02-08T20:09:20.848Z,3.37
2023-02-08T20:11:57.309Z,5.60
2023-02-08T20:14:26.611Z,5.50
2023-02-08T20:16:55.393Z,4.60
2023-02-08T20:19:23.948Z,4.33
2023-02-08T20:21:52.792Z,5.50
2023-02-08T20:24:21.397Z,5.87
2023-02-08T20:26:54.318Z,5.93
2023-02-08T20:29:22.810Z,5.03
2023-02-08T20:31:56.036Z,5.07
2023-02-08T20:34:24.859Z,6.53
2023-02-08T20:37:11.881Z,6.40
2023-02-08T20:39:40.411Z,5.37
2023-02-08T20:42:10.744Z,5.07
2023-02-08T20:44:41.690Z,4.80
2023-02-08T20:47:10.789Z,4.07
2023-02-08T20:49:40.140Z,4.73
2023-02-08T20:52:08.769Z,5.77
2023-02-08T20:54:37.261Z,4.57
2023-02-08T20:57:05.892Z,4.73
2023-02-08T20:59:35.749Z,5.70
2023-02-08T21:02:05.216Z,3.80
2023-02-08T21:04:33.961Z,5.67
2023-02-08T21:07:07.846Z,5.20
2023-02-08T21:09:38.544Z,4.27
2023-02-08T21:12:18.885Z,5.30
2023-02-08T21:15:03.604Z,4.20
2023-02-08T21:17:32.435Z,6.70
2023-02-08T21:20:01.104Z,4.17
2023-02-08T21:22:30.080Z,5.03
2023-02-08T21:24:58.863Z,5.57
2023-02-08T21:27:29.761Z,6.03
2023-02-08T21:30:01.108Z,5.57
2023-02-08T21:32:30.357Z,6.43
2023-02-08T21:34:59.437Z,5.73
2023-02-08T21:37:28.171Z,7.23
2023-02-08T21:39:57.144Z,5.70
2023-02-08T21:42:25.963Z,7.10
2023-02-08T21:44:54.715Z,3.97
2023-02-08T21:47:27.882Z,5.13
2023-02-08T21:50:10.437Z,4.90
2023-02-08T21:52:56.497Z,5.23
2023-02-08T21:55:25.168Z,5.93
2023-02-08T21:57:55.540Z,6.43
2023-02-08T22:00:30.590Z,6.57
2023-02-08T22:03:00.764Z,5.23
2023-02-08T22:05:49.725Z,3.57
2023-02-08T22:11:23.811Z,6.50
2023-02-08T22:14:12.433Z,5.93
2023-02-08T22:17:00.457Z,5.37
2023-02-08T22:19:31.185Z,4.90
2023-02-08T22:22:05.927Z,7.17
2023-02-08T22:24:34.976Z,5.10
2023-02-08T22:27:04.101Z,5.13
2023-02-08T22:29:33.978Z,6.67
2023-02-08T22:32:03.340Z,6.53
2023-02-08T22:34:34.621Z,6.50
2023-02-08T22:37:11.580Z,6.03
2023-02-08T22:39:43.462Z,7.87
2023-02-08T22:42:14.958Z,5.17
2023-02-08T22:44:44.512Z,4.73
2023-02-08T22:47:15.200Z,1.70
2023-02-08T22:49:48.321Z,6.13
2023-02-08T22:52:21.484Z,5.50
2023-02-08T22:55:06.960Z,5.70
2023-02-08T22:57:51.123Z,4.57
2023-02-08T23:00:27.621Z,4.20
2023-02-08T23:03:00.076Z,3.83
2023-02-08T23:05:30.551Z,6.97
2023-02-08T23:08:02.436Z,4.80
2023-02-08T23:10:33.608Z,5.73
2023-02-08T23:13:02.351Z,6.37
2023-02-08T23:15:33.031Z,5.80
2023-02-08T23:18:03.410Z,4.53
2023-02-08T23:20:33.598Z,4.67
2023-02-08T23:23:03.191Z,3.93
2023-02-08T23:25:40.247Z,3.13
2023-02-08T23:28:12.537Z,5.20
2023-02-08T23:30:41.834Z,5.73
2023-02-08T23:33:12.913Z,6.67
2023-02-08T23:35:45.417Z,7.90
2023-02-08T23:38:18.112Z,8.03
2023-02-08T23:40:49.857Z,7.53
2023-02-08T23:43:18.771Z,4.93
2023-02-08T23:45:51.605Z,5.73
2023-02-08T23:48:20.754Z,6.17
2023-02-08T23:50:59.840Z,7.10
2023-02-08T23:53:30.559Z,8.57
2023-02-08T23:56:14.887Z,7.90
2023-02-08T23:58:47.157Z,5.17
